sensor_id;sensor_type;location;lat;lon;timestamp;P1;durP1;ratioP1;P2;durP2;ratioP2
44694;SDS011;32845;59.422;17.930;2024-02-15T00:00:34;32.97;;;8.07;;
44694;SDS011;32845;59.422;17.930;2024-02-15T00:05:06;41.88;;;8.45;;
44694;SDS011;32845;59.422;17.930;2024-02-15T00:09:38;42.28;;;9.07;;
44694;SDS011;32845;59.422;17.930;2024-02-15T00:14:08;44.45;;;8.45;;
44694;SDS011;32845;59.422;17.930;2024-02-15T00:18:39;66.90;;;7.85;;
44694;SDS011;32845;59.422;17.930;2024-02-15T00:23:10;42.30;;;8.48;;
44694;SDS011;32845;59.422;17.930;2024-02-15T00:27:40;54.35;;;7.97;;
44694;SDS011;32845;59.422;17.930;2024-02-15T00:32:11;72.78;;;7.95;;
44694;SDS011;32845;59.422;17.930;2024-02-15T00:36:42;51.83;;;8.35;;
44694;SDS011;32845;59.422;17.930;2024-02-15T00:41:14;67.97;;;8.48;;
44694;SDS011;32845;59.422;17.930;2024-02-15T00:45:44;72.82;;;8.80;;
44694;SDS011;32845;59.422;17.930;2024-02-15T00:50:15;44.05;;;8.18;;
44694;SDS011;32845;59.422;17.930;2024-02-15T00:54:46;47.75;;;6.78;;
44694;SDS011;32845;59.422;17.930;2024-02-15T00:59:17;90.28;;;8.05;;
44694;SDS011;32845;59.422;17.930;2024-02-15T01:03:48;32.45;;;6.80;;
44694;SDS011;32845;59.422;17.930;2024-02-15T01:08:19;34.72;;;7.05;;
44694;SDS011;32845;59.422;17.930;2024-02-15T01:12:50;41.85;;;6.78;;
44694;SDS011;32845;59.422;17.930;2024-02-15T01:17:21;46.58;;;6.82;;
44694;SDS011;32845;59.422;17.930;2024-02-15T01:21:51;69.38;;;7.03;;
44694;SDS011;32845;59.422;17.930;2024-02-15T01:26:23;70.72;;;6.25;;
44694;SDS011;32845;59.422;17.930;2024-02-15T01:30:54;87.85;;;6.43;;
44694;SDS011;32845;59.422;17.930;2024-02-15T01:35:25;146.02;;;10.55;;
44694;SDS011;32845;59.422;17.930;2024-02-15T01:39:56;53.80;;;5.88;;
44694;SDS011;32845;59.422;17.930;2024-02-15T01:44:27;58.95;;;5.88;;
44694;SDS011;32845;59.422;17.930;2024-02-15T01:48:58;131.43;;;7.70;;
44694;SDS011;32845;59.422;17.930;2024-02-15T01:53:29;72.10;;;5.25;;
44694;SDS011;32845;59.422;17.930;2024-02-15T01:58:00;124.60;;;6.28;;
44694;SDS011;32845;59.422;17.930;2024-02-15T02:02:32;91.00;;;6.47;;
44694;SDS011;32845;59.422;17.930;2024-02-15T02:07:05;35.50;;;5.75;;
44694;SDS011;32845;59.422;17.930;2024-02-15T02:11:36;115.78;;;7.45;;
44694;SDS011;32845;59.422;17.930;2024-02-15T02:16:28;75.47;;;4.95;;
44694;SDS011;32845;59.422;17.930;2024-02-15T02:20:58;47.50;;;5.63;;
44694;SDS011;32845;59.422;17.930;2024-02-15T02:25:30;63.92;;;5.20;;
44694;SDS011;32845;59.422;17.930;2024-02-15T02:30:00;97.82;;;4.93;;
44694;SDS011;32845;59.422;17.930;2024-02-15T02:34:36;63.10;;;4.63;;
44694;SDS011;32845;59.422;17.930;2024-02-15T02:39:07;108.57;;;5.63;;
44694;SDS011;32845;59.422;17.930;2024-02-15T02:43:39;83.15;;;4.88;;
44694;SDS011;32845;59.422;17.930;2024-02-15T02:48:10;84.13;;;4.75;;
44694;SDS011;32845;59.422;17.930;2024-02-15T02:52:41;123.15;;;7.55;;
44694;SDS011;32845;59.422;17.930;2024-02-15T02:57:12;38.10;;;5.03;;
44694;SDS011;32845;59.422;17.930;2024-02-15T03:01:42;80.13;;;5.15;;
44694;SDS011;32845;59.422;17.930;2024-02-15T03:06:22;118.75;;;6.75;;
44694;SDS011;32845;59.422;17.930;2024-02-15T03:10:54;110.20;;;5.28;;
44694;SDS011;32845;59.422;17.930;2024-02-15T03:15:25;117.88;;;4.95;;
44694;SDS011;32845;59.422;17.930;2024-02-15T03:19:56;120.40;;;6.38;;
44694;SDS011;32845;59.422;17.930;2024-02-15T03:24:27;126.45;;;6.22;;
44694;SDS011;32845;59.422;17.930;2024-02-15T03:28:58;90.38;;;4.55;;
44694;SDS011;32845;59.422;17.930;2024-02-15T03:33:28;71.00;;;4.13;;
44694;SDS011;32845;59.422;17.930;2024-02-15T03:38:03;78.95;;;7.15;;
44694;SDS011;32845;59.422;17.930;2024-02-15T03:42:35;25.75;;;4.28;;
44694;SDS011;32845;59.422;17.930;2024-02-15T03:47:06;21.05;;;3.83;;
44694;SDS011;32845;59.422;17.930;2024-02-15T03:51:37;85.05;;;5.13;;
44694;SDS011;32845;59.422;17.930;2024-02-15T03:56:08;33.03;;;3.92;;
44694;SDS011;32845;59.422;17.930;2024-02-15T04:00:38;64.65;;;4.68;;
44694;SDS011;32845;59.422;17.930;2024-02-15T04:05:10;48.55;;;4.45;;
44694;SDS011;32845;59.422;17.930;2024-02-15T04:09:42;30.85;;;4.45;;
44694;SDS011;32845;59.422;17.930;2024-02-15T04:14:13;50.63;;;4.45;;
44694;SDS011;32845;59.422;17.930;2024-02-15T04:18:44;66.78;;;4.40;;
44694;SDS011;32845;59.422;17.930;2024-02-15T04:23:15;28.90;;;3.08;;
44694;SDS011;32845;59.422;17.930;2024-02-15T04:27:46;86.97;;;4.65;;
44694;SDS011;32845;59.422;17.930;2024-02-15T04:32:19;35.92;;;4.43;;
44694;SDS011;32845;59.422;17.930;2024-02-15T04:36:51;71.05;;;4.40;;
44694;SDS011;32845;59.422;17.930;2024-02-15T04:41:25;43.90;;;3.85;;
44694;SDS011;32845;59.422;17.930;2024-02-15T04:46:06;48.50;;;4.07;;
44694;SDS011;32845;59.422;17.930;2024-02-15T04:50:37;45.03;;;5.43;;
44694;SDS011;32845;59.422;17.930;2024-02-15T04:55:09;37.63;;;4.22;;
44694;SDS011;32845;59.422;17.930;2024-02-15T04:59:40;45.47;;;4.07;;
44694;SDS011;32845;59.422;17.930;2024-02-15T05:04:17;30.70;;;4.10;;
44694;SDS011;32845;59.422;17.930;2024-02-15T05:08:48;81.45;;;4.60;;
44694;SDS011;32845;59.422;17.930;2024-02-15T05:13:18;21.50;;;4.13;;
44694;SDS011;32845;59.422;17.930;2024-02-15T05:17:49;61.22;;;5.70;;
44694;SDS011;32845;59.422;17.930;2024-02-15T05:22:19;51.47;;;4.70;;
44694;SDS011;32845;59.422;17.930;2024-02-15T05:26:50;34.97;;;4.32;;
44694;SDS011;32845;59.422;17.930;2024-02-15T05:31:21;48.97;;;4.72;;
44694;SDS011;32845;59.422;17.930;2024-02-15T05:35:55;66.28;;;4.10;;
44694;SDS011;32845;59.422;17.930;2024-02-15T05:40:25;35.63;;;4.40;;
44694;SDS011;32845;59.422;17.930;2024-02-15T05:44:59;62.53;;;6.07;;
44694;SDS011;32845;59.422;17.930;2024-02-15T05:50:06;66.93;;;4.88;;
44694;SDS011;32845;59.422;17.930;2024-02-15T05:54:37;76.85;;;5.07;;
44694;SDS011;32845;59.422;17.930;2024-02-15T05:59:08;56.47;;;4.45;;
44694;SDS011;32845;59.422;17.930;2024-02-15T06:03:40;52.15;;;4.05;;
44694;SDS011;32845;59.422;17.930;2024-02-15T06:08:14;46.35;;;3.97;;
44694;SDS011;32845;59.422;17.930;2024-02-15T06:12:44;44.15;;;4.88;;
44694;SDS011;32845;59.422;17.930;2024-02-15T06:17:15;46.22;;;4.75;;
44694;SDS011;32845;59.422;17.930;2024-02-15T06:21:45;31.88;;;5.28;;
44694;SDS011;32845;59.422;17.930;2024-02-15T06:26:16;31.05;;;5.30;;
44694;SDS011;32845;59.422;17.930;2024-02-15T06:30:47;75.63;;;6.40;;
44694;SDS011;32845;59.422;17.930;2024-02-15T06:35:36;61.50;;;5.55;;
44694;SDS011;32845;59.422;17.930;2024-02-15T06:40:26;32.28;;;4.95;;
44694;SDS011;32845;59.422;17.930;2024-02-15T06:44:56;43.50;;;4.55;;
44694;SDS011;32845;59.422;17.930;2024-02-15T06:49:27;82.93;;;5.35;;
44694;SDS011;32845;59.422;17.930;2024-02-15T06:54:13;64.82;;;5.85;;
44694;SDS011;32845;59.422;17.930;2024-02-15T06:58:44;67.07;;;5.55;;
44694;SDS011;32845;59.422;17.930;2024-02-15T07:03:15;48.08;;;4.95;;
44694;SDS011;32845;59.422;17.930;2024-02-15T07:07:46;71.72;;;4.63;;
44694;SDS011;32845;59.422;17.930;2024-02-15T07:12:17;46.47;;;5.18;;
44694;SDS011;32845;59.422;17.930;2024-02-15T07:16:49;40.60;;;5.50;;
44694;SDS011;32845;59.422;17.930;2024-02-15T07:21:20;40.72;;;5.22;;
44694;SDS011;32845;59.422;17.930;2024-02-15T07:25:56;75.05;;;6.28;;
44694;SDS011;32845;59.422;17.930;2024-02-15T07:30:26;42.50;;;6.50;;
44694;SDS011;32845;59.422;17.930;2024-02-15T07:34:57;59.38;;;6.97;;
44694;SDS011;32845;59.422;17.930;2024-02-15T07:39:28;36.38;;;6.63;;
44694;SDS011;32845;59.422;17.930;2024-02-15T07:43:59;37.88;;;5.90;;
44694;SDS011;32845;59.422;17.930;2024-02-15T07:48:31;58.25;;;5.90;;
44694;SDS011;32845;59.422;17.930;2024-02-15T07:53:01;35.28;;;4.97;;
44694;SDS011;32845;59.422;17.930;2024-02-15T07:57:32;67.35;;;6.38;;
44694;SDS011;32845;59.422;17.930;2024-02-15T08:02:03;109.20;;;6.97;;
44694;SDS011;32845;59.422;17.930;2024-02-15T08:06:34;75.78;;;6.10;;
44694;SDS011;32845;59.422;17.930;2024-02-15T08:11:09;60.05;;;6.65;;
44694;SDS011;32845;59.422;17.930;2024-02-15T08:15:44;61.15;;;6.30;;
44694;SDS011;32845;59.422;17.930;2024-02-15T08:20:16;78.63;;;7.03;;
44694;SDS011;32845;59.422;17.930;2024-02-15T08:24:52;62.35;;;6.80;;
44694;SDS011;32845;59.422;17.930;2024-02-15T08:29:22;65.90;;;7.35;;
44694;SDS011;32845;59.422;17.930;2024-02-15T08:33:58;69.78;;;8.13;;
44694;SDS011;32845;59.422;17.930;2024-02-15T08:38:30;71.75;;;9.85;;
44694;SDS011;32845;59.422;17.930;2024-02-15T08:43:01;71.72;;;7.18;;
44694;SDS011;32845;59.422;17.930;2024-02-15T08:47:32;52.78;;;7.82;;
44694;SDS011;32845;59.422;17.930;2024-02-15T08:52:03;51.72;;;7.40;;
44694;SDS011;32845;59.422;17.930;2024-02-15T08:56:37;100.63;;;10.00;;
44694;SDS011;32845;59.422;17.930;2024-02-15T09:01:08;99.50;;;8.70;;
44694;SDS011;32845;59.422;17.930;2024-02-15T09:05:43;38.05;;;8.95;;
44694;SDS011;32845;59.422;17.930;2024-02-15T09:10:14;63.28;;;8.23;;
44694;SDS011;32845;59.422;17.930;2024-02-15T09:14:47;48.72;;;10.40;;
44694;SDS011;32845;59.422;17.930;2024-02-15T09:19:17;62.90;;;11.15;;
44694;SDS011;32845;59.422;17.930;2024-02-15T09:23:49;59.85;;;12.10;;
44694;SDS011;32845;59.422;17.930;2024-02-15T09:28:19;42.60;;;11.07;;
44694;SDS011;32845;59.422;17.930;2024-02-15T09:32:51;50.33;;;13.50;;
44694;SDS011;32845;59.422;17.930;2024-02-15T09:37:22;45.75;;;13.02;;
44694;SDS011;32845;59.422;17.930;2024-02-15T09:41:54;58.80;;;14.07;;
44694;SDS011;32845;59.422;17.930;2024-02-15T09:46:37;50.63;;;14.00;;
44694;SDS011;32845;59.422;17.930;2024-02-15T09:51:14;61.47;;;14.45;;
44694;SDS011;32845;59.422;17.930;2024-02-15T09:55:48;56.65;;;14.65;;
44694;SDS011;32845;59.422;17.930;2024-02-15T10:00:19;56.42;;;14.00;;
44694;SDS011;32845;59.422;17.930;2024-02-15T10:04:55;73.70;;;14.77;;
44694;SDS011;32845;59.422;17.930;2024-02-15T10:09:27;55.42;;;11.05;;
44694;SDS011;32845;59.422;17.930;2024-02-15T10:14:18;75.07;;;12.52;;
44694;SDS011;32845;59.422;17.930;2024-02-15T10:18:51;74.03;;;11.93;;
44694;SDS011;32845;59.422;17.930;2024-02-15T10:23:31;55.63;;;13.20;;
44694;SDS011;32845;59.422;17.930;2024-02-15T10:32:35;71.35;;;12.32;;
44694;SDS011;32845;59.422;17.930;2024-02-15T10:37:15;43.90;;;11.65;;
44694;SDS011;32845;59.422;17.930;2024-02-15T10:41:47;48.25;;;12.52;;
44694;SDS011;32845;59.422;17.930;2024-02-15T10:46:24;45.75;;;12.73;;
44694;SDS011;32845;59.422;17.930;2024-02-15T10:50:56;40.08;;;13.25;;
44694;SDS011;32845;59.422;17.930;2024-02-15T11:00:26;45.90;;;14.27;;
44694;SDS011;32845;59.422;17.930;2024-02-15T11:05:11;48.15;;;15.30;;
44694;SDS011;32845;59.422;17.930;2024-02-15T11:09:44;40.90;;;14.43;;
44694;SDS011;32845;59.422;17.930;2024-02-15T11:14:30;40.10;;;14.35;;
44694;SDS011;32845;59.422;17.930;2024-02-15T11:19:02;41.15;;;14.10;;
44694;SDS011;32845;59.422;17.930;2024-02-15T11:23:33;36.70;;;12.98;;
44694;SDS011;32845;59.422;17.930;2024-02-15T11:37:55;41.95;;;13.18;;
44694;SDS011;32845;59.422;17.930;2024-02-15T11:42:28;39.47;;;12.70;;
44694;SDS011;32845;59.422;17.930;2024-02-15T11:46:59;36.42;;;12.70;;
44694;SDS011;32845;59.422;17.930;2024-02-15T11:51:34;43.67;;;12.23;;
44694;SDS011;32845;59.422;17.930;2024-02-15T11:56:22;34.20;;;13.27;;
44694;SDS011;32845;59.422;17.930;2024-02-15T12:00:53;35.22;;;12.57;;
44694;SDS011;32845;59.422;17.930;2024-02-15T12:05:53;24.55;;;10.18;;
44694;SDS011;32845;59.422;17.930;2024-02-15T12:10:43;28.33;;;9.70;;
44694;SDS011;32845;59.422;17.930;2024-02-15T12:15:32;25.17;;;9.07;;
44694;SDS011;32845;59.422;17.930;2024-02-15T12:20:21;24.30;;;9.63;;
44694;SDS011;32845;59.422;17.930;2024-02-15T12:25:04;23.05;;;10.30;;
44694;SDS011;32845;59.422;17.930;2024-02-15T12:29:41;35.33;;;10.82;;
44694;SDS011;32845;59.422;17.930;2024-02-15T12:34:12;28.85;;;10.50;;
44694;SDS011;32845;59.422;17.930;2024-02-15T12:38:43;34.60;;;11.07;;
44694;SDS011;32845;59.422;17.930;2024-02-15T12:43:19;46.60;;;11.30;;
44694;SDS011;32845;59.422;17.930;2024-02-15T12:48:04;85.18;;;13.70;;
44694;SDS011;32845;59.422;17.930;2024-02-15T12:52:37;45.45;;;11.82;;
44694;SDS011;32845;59.422;17.930;2024-02-15T12:57:13;39.03;;;10.50;;
44694;SDS011;32845;59.422;17.930;2024-02-15T13:01:44;37.47;;;12.15;;
44694;SDS011;32845;59.422;17.930;2024-02-15T13:06:16;30.88;;;11.05;;
44694;SDS011;32845;59.422;17.930;2024-02-15T13:10:49;61.67;;;10.85;;
44694;SDS011;32845;59.422;17.930;2024-02-15T13:15:21;45.30;;;11.05;;
44694;SDS011;32845;59.422;17.930;2024-02-15T13:19:57;61.20;;;11.95;;
44694;SDS011;32845;59.422;17.930;2024-02-15T13:24:44;55.00;;;11.55;;
44694;SDS011;32845;59.422;17.930;2024-02-15T13:29:15;41.97;;;10.52;;
44694;SDS011;32845;59.422;17.930;2024-02-15T13:33:45;26.33;;;10.02;;
44694;SDS011;32845;59.422;17.930;2024-02-15T13:38:17;35.20;;;11.38;;
44694;SDS011;32845;59.422;17.930;2024-02-15T13:42:55;28.30;;;10.30;;
44694;SDS011;32845;59.422;17.930;2024-02-15T13:47:30;46.85;;;10.77;;
44694;SDS011;32845;59.422;17.930;2024-02-15T13:52:01;80.78;;;12.80;;
44694;SDS011;32845;59.422;17.930;2024-02-15T13:56:33;29.27;;;10.60;;
44694;SDS011;32845;59.422;17.930;2024-02-15T14:01:03;41.75;;;10.82;;
44694;SDS011;32845;59.422;17.930;2024-02-15T14:05:34;45.85;;;11.35;;
44694;SDS011;32845;59.422;17.930;2024-02-15T14:10:06;98.72;;;11.50;;
44694;SDS011;32845;59.422;17.930;2024-02-15T14:14:52;45.45;;;10.23;;
44694;SDS011;32845;59.422;17.930;2024-02-15T14:19:23;31.15;;;9.93;;
44694;SDS011;32845;59.422;17.930;2024-02-15T14:23:56;43.85;;;9.95;;
44694;SDS011;32845;59.422;17.930;2024-02-15T14:28:26;54.58;;;9.93;;
44694;SDS011;32845;59.422;17.930;2024-02-15T14:32:57;62.90;;;10.25;;
44694;SDS011;32845;59.422;17.930;2024-02-15T14:37:34;47.67;;;12.48;;
44694;SDS011;32845;59.422;17.930;2024-02-15T14:42:06;66.95;;;9.70;;
44694;SDS011;32845;59.422;17.930;2024-02-15T14:46:37;69.07;;;12.73;;
44694;SDS011;32845;59.422;17.930;2024-02-15T14:51:08;62.67;;;9.32;;
44694;SDS011;32845;59.422;17.930;2024-02-15T14:55:39;43.53;;;9.05;;
44694;SDS011;32845;59.422;17.930;2024-02-15T15:00:10;74.47;;;10.25;;
44694;SDS011;32845;59.422;17.930;2024-02-15T15:04:42;43.13;;;8.40;;
44694;SDS011;32845;59.422;17.930;2024-02-15T15:09:47;80.38;;;9.70;;
44694;SDS011;32845;59.422;17.930;2024-02-15T15:14:37;81.40;;;9.50;;
44694;SDS011;32845;59.422;17.930;2024-02-15T15:19:08;50.95;;;8.52;;
44694;SDS011;32845;59.422;17.930;2024-02-15T15:23:38;48.38;;;9.07;;
44694;SDS011;32845;59.422;17.930;2024-02-15T15:28:09;62.58;;;7.30;;
44694;SDS011;32845;59.422;17.930;2024-02-15T15:32:40;37.50;;;8.45;;
44694;SDS011;32845;59.422;17.930;2024-02-15T15:37:10;135.38;;;9.60;;
44694;SDS011;32845;59.422;17.930;2024-02-15T15:41:45;59.65;;;9.63;;
44694;SDS011;32845;59.422;17.930;2024-02-15T15:46:16;112.13;;;10.68;;
44694;SDS011;32845;59.422;17.930;2024-02-15T15:50:46;92.10;;;10.30;;
44694;SDS011;32845;59.422;17.930;2024-02-15T15:55:23;78.15;;;9.30;;
44694;SDS011;32845;59.422;17.930;2024-02-15T15:59:56;72.25;;;10.55;;
44694;SDS011;32845;59.422;17.930;2024-02-15T16:04:27;108.53;;;8.63;;
44694;SDS011;32845;59.422;17.930;2024-02-15T16:08:58;72.13;;;11.90;;
44694;SDS011;32845;59.422;17.930;2024-02-15T16:13:37;95.15;;;8.93;;
44694;SDS011;32845;59.422;17.930;2024-02-15T16:18:08;131.70;;;11.23;;
44694;SDS011;32845;59.422;17.930;2024-02-15T16:22:40;47.47;;;9.80;;
44694;SDS011;32845;59.422;17.930;2024-02-15T16:27:16;119.88;;;9.15;;
44694;SDS011;32845;59.422;17.930;2024-02-15T16:31:47;74.53;;;9.13;;
44694;SDS011;32845;59.422;17.930;2024-02-15T16:36:18;32.13;;;9.45;;
44694;SDS011;32845;59.422;17.930;2024-02-15T16:40:48;64.43;;;10.30;;
44694;SDS011;32845;59.422;17.930;2024-02-15T16:45:20;51.33;;;9.82;;
44694;SDS011;32845;59.422;17.930;2024-02-15T16:49:50;80.43;;;9.45;;
44694;SDS011;32845;59.422;17.930;2024-02-15T16:54:31;104.53;;;9.68;;
44694;SDS011;32845;59.422;17.930;2024-02-15T16:59:02;148.85;;;12.82;;
44694;SDS011;32845;59.422;17.930;2024-02-15T17:03:37;111.00;;;11.27;;
44694;SDS011;32845;59.422;17.930;2024-02-15T17:08:08;116.38;;;10.20;;
44694;SDS011;32845;59.422;17.930;2024-02-15T17:12:39;50.33;;;8.18;;
44694;SDS011;32845;59.422;17.930;2024-02-15T17:17:15;70.25;;;9.18;;
44694;SDS011;32845;59.422;17.930;2024-02-15T17:21:47;40.20;;;8.20;;
44694;SDS011;32845;59.422;17.930;2024-02-15T17:26:32;91.85;;;11.80;;
44694;SDS011;32845;59.422;17.930;2024-02-15T17:31:03;85.93;;;8.55;;
44694;SDS011;32845;59.422;17.930;2024-02-15T17:35:47;48.72;;;7.80;;
44694;SDS011;32845;59.422;17.930;2024-02-15T17:40:21;55.72;;;7.15;;
44694;SDS011;32845;59.422;17.930;2024-02-15T17:44:51;30.40;;;7.47;;
44694;SDS011;32845;59.422;17.930;2024-02-15T17:49:22;91.68;;;7.95;;
44694;SDS011;32845;59.422;17.930;2024-02-15T17:53:52;134.20;;;8.65;;
44694;SDS011;32845;59.422;17.930;2024-02-15T17:58:23;82.63;;;8.07;;
44694;SDS011;32845;59.422;17.930;2024-02-15T18:02:55;23.13;;;6.53;;
44694;SDS011;32845;59.422;17.930;2024-02-15T18:07:26;27.38;;;7.07;;
44694;SDS011;32845;59.422;17.930;2024-02-15T18:11:59;79.32;;;7.18;;
44694;SDS011;32845;59.422;17.930;2024-02-15T18:16:29;31.75;;;7.80;;
44694;SDS011;32845;59.422;17.930;2024-02-15T18:21:00;58.10;;;7.18;;
44694;SDS011;32845;59.422;17.930;2024-02-15T18:25:31;62.67;;;7.25;;
44694;SDS011;32845;59.422;17.930;2024-02-15T18:30:02;43.00;;;7.22;;
44694;SDS011;32845;59.422;17.930;2024-02-15T18:34:39;32.20;;;6.78;;
44694;SDS011;32845;59.422;17.930;2024-02-15T18:39:12;71.90;;;7.43;;
44694;SDS011;32845;59.422;17.930;2024-02-15T18:43:42;55.22;;;6.65;;
44694;SDS011;32845;59.422;17.930;2024-02-15T18:48:19;79.88;;;9.02;;
44694;SDS011;32845;59.422;17.930;2024-02-15T18:52:50;88.15;;;10.57;;
44694;SDS011;32845;59.422;17.930;2024-02-15T18:57:21;56.35;;;9.80;;
44694;SDS011;32845;59.422;17.930;2024-02-15T19:01:52;137.38;;;10.07;;
44694;SDS011;32845;59.422;17.930;2024-02-15T19:06:28;57.75;;;9.50;;
44694;SDS011;32845;59.422;17.930;2024-02-15T19:11:00;34.40;;;8.02;;
44694;SDS011;32845;59.422;17.930;2024-02-15T19:15:36;74.47;;;8.45;;
44694;SDS011;32845;59.422;17.930;2024-02-15T19:20:08;75.93;;;8.18;;
44694;SDS011;32845;59.422;17.930;2024-02-15T19:24:49;63.67;;;8.27;;
44694;SDS011;32845;59.422;17.930;2024-02-15T19:29:21;43.75;;;8.57;;
44694;SDS011;32845;59.422;17.930;2024-02-15T19:34:00;101.70;;;11.13;;
44694;SDS011;32845;59.422;17.930;2024-02-15T19:38:32;28.55;;;7.93;;
44694;SDS011;32845;59.422;17.930;2024-02-15T19:43:03;59.42;;;8.98;;
44694;SDS011;32845;59.422;17.930;2024-02-15T19:47:35;55.72;;;8.10;;
44694;SDS011;32845;59.422;17.930;2024-02-15T19:52:06;31.30;;;8.55;;
44694;SDS011;32845;59.422;17.930;2024-02-15T19:56:44;91.32;;;9.30;;
44694;SDS011;32845;59.422;17.930;2024-02-15T20:01:15;41.88;;;8.07;;
44694;SDS011;32845;59.422;17.930;2024-02-15T20:05:47;95.30;;;8.63;;
44694;SDS011;32845;59.422;17.930;2024-02-15T20:10:18;61.60;;;9.95;;
44694;SDS011;32845;59.422;17.930;2024-02-15T20:14:58;54.88;;;9.07;;
44694;SDS011;32845;59.422;17.930;2024-02-15T20:19:28;45.47;;;8.70;;
44694;SDS011;32845;59.422;17.930;2024-02-15T20:23:59;94.28;;;8.75;;
44694;SDS011;32845;59.422;17.930;2024-02-15T20:28:34;106.75;;;9.45;;
44694;SDS011;32845;59.422;17.930;2024-02-15T20:33:05;125.95;;;10.30;;
44694;SDS011;32845;59.422;17.930;2024-02-15T20:37:44;130.13;;;10.23;;
44694;SDS011;32845;59.422;17.930;2024-02-15T20:42:14;120.97;;;10.75;;
44694;SDS011;32845;59.422;17.930;2024-02-15T20:46:46;59.00;;;9.40;;
44694;SDS011;32845;59.422;17.930;2024-02-15T20:51:16;59.47;;;9.15;;
44694;SDS011;32845;59.422;17.930;2024-02-15T20:56:03;159.98;;;9.68;;
44694;SDS011;32845;59.422;17.930;2024-02-15T21:00:35;115.40;;;9.23;;
44694;SDS011;32845;59.422;17.930;2024-02-15T21:05:11;116.55;;;9.48;;
44694;SDS011;32845;59.422;17.930;2024-02-15T21:09:43;80.40;;;10.43;;
44694;SDS011;32845;59.422;17.930;2024-02-15T21:14:13;112.28;;;9.55;;
44694;SDS011;32845;59.422;17.930;2024-02-15T21:18:44;97.75;;;9.73;;
44694;SDS011;32845;59.422;17.930;2024-02-15T21:23:21;106.88;;;12.85;;
44694;SDS011;32845;59.422;17.930;2024-02-15T21:27:53;106.35;;;10.18;;
44694;SDS011;32845;59.422;17.930;2024-02-15T21:32:24;100.80;;;11.18;;
44694;SDS011;32845;59.422;17.930;2024-02-15T21:36:54;119.72;;;10.00;;
44694;SDS011;32845;59.422;17.930;2024-02-15T21:41:25;82.05;;;10.40;;
44694;SDS011;32845;59.422;17.930;2024-02-15T21:45:56;127.22;;;8.98;;
44694;SDS011;32845;59.422;17.930;2024-02-15T21:50:27;194.88;;;11.38;;
44694;SDS011;32845;59.422;17.930;2024-02-15T21:55:03;168.80;;;10.00;;
44694;SDS011;32845;59.422;17.930;2024-02-15T21:59:34;144.00;;;10.82;;
44694;SDS011;32845;59.422;17.930;2024-02-15T22:04:05;117.35;;;9.63;;
44694;SDS011;32845;59.422;17.930;2024-02-15T22:08:36;192.55;;;12.02;;
44694;SDS011;32845;59.422;17.930;2024-02-15T22:13:11;155.23;;;11.30;;
44694;SDS011;32845;59.422;17.930;2024-02-15T22:17:44;190.30;;;12.60;;
44694;SDS011;32845;59.422;17.930;2024-02-15T22:22:14;51.22;;;11.00;;
44694;SDS011;32845;59.422;17.930;2024-02-15T22:26:45;96.72;;;12.55;;
44694;SDS011;32845;59.422;17.930;2024-02-15T22:31:19;164.43;;;11.77;;
44694;SDS011;32845;59.422;17.930;2024-02-15T22:36:01;219.27;;;12.10;;
44694;SDS011;32845;59.422;17.930;2024-02-15T22:40:33;65.03;;;9.70;;
44694;SDS011;32845;59.422;17.930;2024-02-15T22:45:06;57.10;;;11.43;;
44694;SDS011;32845;59.422;17.930;2024-02-15T22:49:39;230.93;;;13.27;;
44694;SDS011;32845;59.422;17.930;2024-02-15T22:54:14;162.02;;;12.82;;
44694;SDS011;32845;59.422;17.930;2024-02-15T22:58:45;176.93;;;12.07;;
44694;SDS011;32845;59.422;17.930;2024-02-15T23:03:31;130.27;;;13.13;;
44694;SDS011;32845;59.422;17.930;2024-02-15T23:08:01;142.75;;;11.38;;
44694;SDS011;32845;59.422;17.930;2024-02-15T23:12:32;105.82;;;11.70;;
44694;SDS011;32845;59.422;17.930;2024-02-15T23:17:08;174.70;;;13.50;;
44694;SDS011;32845;59.422;17.930;2024-02-15T23:21:38;212.75;;;11.45;;
44694;SDS011;32845;59.422;17.930;2024-02-15T23:26:19;197.35;;;11.48;;
44694;SDS011;32845;59.422;17.930;2024-02-15T23:30:50;161.52;;;11.23;;
44694;SDS011;32845;59.422;17.930;2024-02-15T23:35:31;290.33;;;14.30;;
44694;SDS011;32845;59.422;17.930;2024-02-15T23:40:02;104.60;;;12.25;;
44694;SDS011;32845;59.422;17.930;2024-02-15T23:44:51;73.35;;;10.75;;
44694;SDS011;32845;59.422;17.930;2024-02-15T23:49:22;127.25;;;11.68;;
44694;SDS011;32845;59.422;17.930;2024-02-15T23:53:53;97.32;;;11.73;;
44694;SDS011;32845;59.422;17.930;2024-02-15T23:58:24;156.90;;;13.70;;
